createdAt,value
2019-02-06T00:00:26.879Z,33.53
2019-02-06T00:02:54.639Z,34.53
2019-02-06T00:05:22.547Z,30.73
2019-02-06T00:07:50.458Z,32.57
2019-02-06T00:10:18.644Z,38.30
2019-02-06T00:12:46.263Z,34.37
2019-02-06T00:15:13.971Z,36.00
2019-02-06T00:17:42.004Z,35.23
2019-02-06T00:20:09.662Z,39.40
2019-02-06T00:22:39.043Z,34.70
2019-02-06T00:25:06.890Z,35.33
2019-02-06T00:27:34.673Z,34.37
2019-02-06T00:30:02.719Z,32.10
2019-02-06T00:32:30.747Z,34.13
2019-02-06T00:34:58.920Z,32.40
2019-02-06T00:37:26.844Z,38.33
2019-02-06T00:39:54.653Z,34.63
2019-02-06T00:42:25.321Z,33.03
2019-02-06T00:44:53.496Z,37.97
2019-02-06T00:47:21.368Z,39.80
2019-02-06T00:49:49.332Z,35.70
2019-02-06T00:52:17.198Z,34.70
2019-02-06T00:54:44.864Z,32.77
2019-02-06T00:57:12.863Z,37.40
2019-02-06T00:59:40.902Z,31.93
2019-02-06T01:02:08.692Z,33.47
2019-02-06T01:04:36.510Z,34.25
2019-02-06T01:07:04.387Z,34.20
2019-02-06T01:09:35.149Z,33.78
2019-02-06T01:12:03.947Z,29.93
2019-02-06T01:14:32.177Z,32.43
2019-02-06T01:17:00.264Z,28.93
2019-02-06T01:19:27.870Z,31.23
2019-02-06T01:21:55.603Z,29.47
2019-02-06T01:24:23.355Z,31.30
2019-02-06T01:26:50.965Z,31.10
2019-02-06T01:29:18.713Z,31.00
2019-02-06T01:31:47.086Z,32.60
2019-02-06T01:34:14.706Z,33.67
2019-02-06T01:36:42.315Z,30.77
2019-02-06T01:39:12.529Z,40.12
2019-02-06T01:41:40.119Z,40.38
2019-02-06T01:44:08.916Z,39.63
2019-02-06T01:46:36.418Z,37.30
2019-02-06T01:49:04.467Z,33.77
2019-02-06T01:51:32.435Z,30.40
2019-02-06T01:54:00.011Z,32.28
2019-02-06T01:56:27.603Z,33.98
2019-02-06T01:58:55.226Z,35.43
2019-02-06T02:01:22.897Z,36.17
2019-02-06T02:03:50.649Z,38.33
2019-02-06T02:06:18.443Z,33.05
2019-02-06T02:08:50.084Z,38.42
2019-02-06T02:11:17.650Z,35.63
2019-02-06T02:13:45.694Z,34.73
2019-02-06T02:16:15.269Z,36.13
2019-02-06T02:18:42.864Z,35.90
2019-02-06T02:21:10.524Z,35.73
2019-02-06T02:23:38.438Z,35.60
2019-02-06T02:26:06.307Z,31.97
2019-02-06T02:28:34.455Z,36.55
2019-02-06T02:31:02.046Z,38.78
2019-02-06T02:33:29.814Z,41.75
2019-02-06T02:35:57.503Z,40.52
2019-02-06T02:38:25.123Z,40.55
2019-02-06T02:40:53.445Z,38.63
2019-02-06T02:43:23.945Z,38.15
2019-02-06T02:45:51.646Z,40.45
2019-02-06T02:48:19.220Z,38.73
2019-02-06T02:50:47.064Z,35.68
2019-02-06T02:53:14.856Z,41.05
2019-02-06T02:55:43.116Z,42.50
2019-02-06T02:58:10.906Z,44.67
2019-02-06T03:00:56.617Z,37.85
2019-02-06T03:03:34.285Z,40.55
2019-02-06T03:06:01.948Z,46.10
2019-02-06T03:08:29.947Z,41.68
2019-02-06T03:10:57.700Z,42.70
2019-02-06T03:13:27.624Z,47.10
2019-02-06T03:15:55.314Z,41.65
2019-02-06T03:18:23.058Z,45.33
2019-02-06T03:20:50.664Z,48.35
2019-02-06T03:23:18.489Z,48.58
2019-02-06T03:25:46.438Z,44.35
2019-02-06T03:28:14.229Z,51.37
2019-02-06T03:30:41.847Z,49.93
2019-02-06T03:33:09.743Z,52.25
2019-02-06T03:35:37.334Z,50.90
2019-02-06T03:38:05.096Z,50.67
2019-02-06T03:40:33.193Z,48.63
2019-02-06T03:43:00.958Z,42.78
2019-02-06T03:45:28.552Z,47.15
2019-02-06T03:47:56.410Z,46.83
2019-02-06T03:50:24.109Z,46.25
2019-02-06T03:52:51.702Z,45.95
2019-02-06T03:55:19.519Z,45.58
2019-02-06T03:57:47.112Z,46.65
2019-02-06T04:00:15.529Z,44.10
2019-02-06T04:02:43.351Z,47.62
2019-02-06T04:05:11.116Z,42.70
2019-02-06T04:07:38.715Z,47.80
2019-02-06T04:10:07.695Z,40.65
2019-02-06T04:12:35.365Z,46.28
2019-02-06T04:15:03.576Z,41.92
2019-02-06T04:17:34.820Z,43.08
2019-02-06T04:20:02.458Z,48.13
2019-02-06T04:22:30.070Z,52.53
2019-02-06T04:24:58.079Z,52.08
2019-02-06T04:27:25.663Z,53.92
2019-02-06T04:29:53.288Z,52.45
2019-02-06T04:32:23.523Z,51.90
2019-02-06T04:34:50.351Z,52.23
2019-02-06T04:37:17.955Z,51.33
2019-02-06T04:39:45.577Z,49.05
2019-02-06T04:42:13.214Z,50.20
2019-02-06T04:44:40.828Z,49.35
2019-02-06T04:47:08.443Z,46.53
2019-02-06T04:49:36.056Z,47.80
2019-02-06T04:52:04.366Z,47.13
2019-02-06T04:54:31.957Z,47.60
2019-02-06T04:56:59.754Z,49.10
2019-02-06T04:59:27.354Z,45.43
2019-02-06T05:01:54.996Z,57.45
2019-02-06T05:04:22.603Z,52.55
2019-02-06T05:06:50.253Z,55.00
2019-02-06T05:09:18.610Z,60.83
2019-02-06T05:11:46.249Z,48.28
2019-02-06T05:14:13.827Z,51.20
2019-02-06T05:16:41.493Z,50.73
2019-02-06T05:19:09.259Z,57.48
2019-02-06T05:21:37.205Z,54.77
2019-02-06T05:24:05.217Z,54.38
2019-02-06T05:26:33.510Z,58.02
2019-02-06T05:29:01.444Z,56.83
2019-02-06T05:31:29.065Z,54.77
2019-02-06T05:33:56.655Z,61.37
2019-02-06T05:36:24.282Z,57.10
2019-02-06T05:38:52.003Z,57.80
2019-02-06T05:41:19.797Z,61.65
2019-02-06T05:43:47.409Z,64.22
2019-02-06T05:46:15.100Z,63.08
2019-02-06T05:48:42.754Z,59.83
2019-02-06T05:51:10.546Z,56.90
2019-02-06T05:53:38.214Z,61.30
2019-02-06T05:56:05.803Z,60.60
2019-02-06T05:58:33.480Z,57.80
2019-02-06T06:01:01.464Z,64.40
2019-02-06T06:03:29.319Z,64.47
2019-02-06T06:05:59.820Z,62.85
2019-02-06T06:08:27.645Z,64.47
2019-02-06T06:10:55.303Z,68.07
2019-02-06T06:13:22.928Z,64.42
2019-02-06T06:15:50.871Z,60.78
2019-02-06T06:18:21.824Z,61.95
2019-02-06T06:20:48.022Z,61.77
2019-02-06T06:23:15.802Z,66.85
2019-02-06T06:25:43.419Z,66.50
2019-02-06T06:28:11.375Z,64.05
2019-02-06T06:30:39.493Z,59.25
2019-02-06T06:33:10.487Z,63.90
2019-02-06T06:35:38.226Z,61.92
2019-02-06T06:38:06.517Z,64.05
2019-02-06T06:40:34.293Z,61.30
2019-02-06T06:43:01.920Z,68.17
2019-02-06T06:45:32.609Z,60.58
2019-02-06T06:48:00.174Z,62.03
2019-02-06T06:50:32.823Z,67.87
2019-02-06T06:53:00.681Z,63.85
2019-02-06T06:55:28.427Z,62.03
2019-02-06T06:57:56.279Z,58.98
2019-02-06T07:00:26.578Z,59.00
2019-02-06T07:02:54.855Z,58.65
2019-02-06T07:05:23.760Z,61.13
2019-02-06T07:07:55.109Z,58.60
2019-02-06T07:10:26.482Z,63.58
2019-02-06T07:12:57.049Z,64.72
2019-02-06T07:15:29.027Z,57.40
2019-02-06T07:17:57.262Z,62.17
2019-02-06T07:20:26.522Z,60.25
2019-02-06T07:22:57.076Z,56.65
2019-02-06T07:25:25.647Z,57.58
2019-02-06T07:27:56.376Z,60.88
2019-02-06T07:30:29.098Z,56.58
2019-02-06T07:32:56.819Z,59.50
2019-02-06T07:35:27.762Z,56.42
2019-02-06T07:37:55.841Z,58.48
2019-02-06T07:40:26.592Z,55.23
2019-02-06T07:43:00.718Z,54.77
2019-02-06T07:45:28.295Z,59.08
2019-02-06T07:47:55.954Z,54.00
2019-02-06T07:50:28.770Z,57.43
2019-02-06T07:52:56.757Z,53.05
2019-02-06T07:55:24.881Z,56.50
2019-02-06T07:57:54.422Z,55.28
2019-02-06T08:00:23.768Z,58.00
2019-02-06T08:02:52.719Z,60.73
2019-02-06T08:05:20.682Z,53.27
2019-02-06T08:07:51.429Z,57.43
2019-02-06T08:10:27.492Z,59.55
2019-02-06T08:12:55.564Z,56.02
2019-02-06T08:15:25.576Z,52.40
2019-02-06T08:17:56.008Z,60.03
2019-02-06T08:20:24.447Z,55.43
2019-02-06T08:22:52.522Z,60.20
2019-02-06T08:25:23.436Z,58.00
2019-02-06T08:27:51.208Z,52.90
2019-02-06T08:30:27.563Z,54.93
2019-02-06T08:32:55.494Z,55.13
2019-02-06T08:35:23.295Z,54.67
2019-02-06T08:37:54.786Z,51.77
2019-02-06T08:40:26.331Z,53.90
2019-02-06T08:42:54.457Z,50.57
2019-02-06T08:45:22.326Z,49.67
2019-02-06T08:47:50.070Z,45.50
2019-02-06T08:50:19.711Z,47.60
2019-02-06T08:52:47.693Z,45.90
2019-02-06T08:55:17.803Z,53.73
2019-02-06T08:57:45.378Z,48.43
2019-02-06T09:00:24.996Z,49.83
2019-02-06T09:02:52.679Z,49.10
2019-02-06T09:05:20.324Z,49.70
2019-02-06T09:07:48.778Z,49.60
2019-02-06T09:10:18.200Z,50.37
2019-02-06T09:12:45.893Z,50.43
2019-02-06T09:15:19.021Z,50.33
2019-02-06T09:17:46.576Z,53.17
2019-02-06T09:20:21.769Z,46.87
2019-02-06T09:22:49.404Z,53.80
2019-02-06T09:25:18.040Z,48.27
2019-02-06T09:27:45.931Z,46.33
2019-02-06T09:30:16.071Z,48.87
2019-02-06T09:32:43.637Z,53.07
2019-02-06T09:35:11.635Z,50.03
2019-02-06T09:37:40.571Z,57.80
2019-02-06T09:40:09.530Z,52.83
2019-02-06T09:42:37.623Z,45.23
2019-02-06T09:45:06.139Z,47.73
2019-02-06T09:47:36.574Z,50.83
2019-02-06T09:50:07.537Z,44.00
2019-02-06T09:52:38.212Z,48.00
2019-02-06T09:55:08.309Z,52.40
2019-02-06T09:57:38.253Z,46.07
2019-02-06T10:00:08.658Z,47.37
2019-02-06T10:02:36.410Z,44.33
2019-02-06T10:05:05.557Z,43.20
2019-02-06T10:07:33.511Z,38.03
2019-02-06T10:10:05.404Z,41.13
2019-02-06T10:12:36.136Z,43.17
2019-02-06T10:15:05.694Z,44.37
2019-02-06T10:17:36.103Z,42.90
2019-02-06T10:20:03.303Z,45.37
2019-02-06T10:22:38.703Z,43.07
2019-02-06T10:25:09.646Z,35.37
2019-02-06T10:27:37.435Z,41.00
2019-02-06T10:30:10.856Z,44.80
2019-02-06T10:32:38.499Z,41.93
2019-02-06T10:35:06.498Z,44.80
2019-02-06T10:37:35.496Z,39.03
2019-02-06T10:40:03.447Z,45.97
2019-02-06T10:42:31.127Z,44.60
2019-02-06T10:44:59.158Z,43.80
2019-02-06T10:47:27.278Z,39.17
2019-02-06T10:49:57.450Z,41.27
2019-02-06T10:52:25.118Z,39.83
2019-02-06T10:54:53.083Z,39.50
2019-02-06T10:57:24.335Z,41.50
2019-02-06T10:59:53.790Z,45.13
2019-02-06T11:02:41.066Z,44.00
2019-02-06T11:05:09.401Z,41.53
2019-02-06T11:07:39.790Z,44.93
2019-02-06T11:10:08.191Z,41.47
2019-02-06T11:12:37.512Z,41.00
2019-02-06T11:15:09.042Z,45.17
2019-02-06T11:17:37.146Z,37.00
2019-02-06T11:20:08.191Z,42.87
2019-02-06T11:22:36.719Z,38.43
2019-02-06T11:25:07.759Z,38.03
2019-02-06T11:27:35.607Z,40.57
2019-02-06T11:30:06.582Z,36.97
2019-02-06T11:32:37.453Z,37.57
2019-02-06T11:35:08.117Z,36.67
2019-02-06T11:37:36.799Z,37.03
2019-02-06T11:40:07.606Z,37.73
2019-02-06T11:42:36.446Z,40.13
2019-02-06T11:45:06.391Z,37.77
2019-02-06T11:47:34.327Z,38.47
2019-02-06T11:50:08.694Z,35.83
2019-02-06T11:52:37.282Z,37.60
2019-02-06T11:55:08.828Z,39.57
2019-02-06T11:57:52.745Z,35.60
2019-02-06T12:00:41.557Z,34.43
2019-02-06T12:03:09.433Z,29.70
2019-02-06T12:05:37.606Z,32.13
2019-02-06T12:08:07.438Z,34.70
2019-02-06T12:10:35.409Z,34.00
2019-02-06T12:13:03.734Z,32.47
2019-02-06T12:15:44.458Z,33.30
2019-02-06T12:18:35.884Z,36.50
2019-02-06T12:21:06.796Z,33.07
2019-02-06T12:23:34.962Z,51.40
2019-02-06T12:26:03.490Z,32.80
2019-02-06T12:28:38.114Z,33.73
2019-02-06T12:31:13.288Z,33.60
2019-02-06T12:33:41.323Z,32.43
2019-02-06T12:36:09.333Z,37.37
2019-02-06T12:38:39.519Z,35.00
2019-02-06T12:41:08.177Z,32.33
2019-02-06T12:43:35.811Z,35.97
2019-02-06T12:46:04.483Z,30.43
2019-02-06T12:48:40.135Z,35.87
2019-02-06T12:51:10.351Z,33.00
2019-02-06T12:53:41.591Z,31.50
2019-02-06T12:56:15.206Z,29.80
2019-02-06T12:58:42.842Z,30.80
2019-02-06T13:01:16.075Z,32.17
2019-02-06T13:03:45.571Z,31.43
2019-02-06T13:06:15.858Z,30.13
2019-02-06T13:08:45.648Z,33.93
2019-02-06T13:11:13.620Z,33.83
2019-02-06T13:13:41.481Z,31.50
2019-02-06T13:16:12.594Z,32.27
2019-02-06T13:18:40.531Z,31.53
2019-02-06T13:21:08.334Z,31.07
2019-02-06T13:23:36.411Z,32.47
2019-02-06T13:26:08.844Z,31.07
2019-02-06T13:28:36.331Z,33.60
2019-02-06T13:31:04.963Z,34.30
2019-02-06T13:33:33.476Z,36.50
2019-02-06T13:36:08.563Z,35.53
2019-02-06T13:38:36.314Z,35.07
2019-02-06T13:41:04.091Z,31.83
2019-02-06T13:43:34.672Z,33.93
2019-02-06T13:46:02.600Z,30.13
2019-02-06T13:48:30.197Z,32.97
2019-02-06T13:50:57.882Z,33.97
2019-02-06T13:53:29.195Z,34.07
2019-02-06T13:55:57.358Z,33.53
2019-02-06T13:58:28.036Z,29.33
2019-02-06T14:00:55.628Z,28.83
2019-02-06T14:03:26.078Z,35.13
2019-02-06T14:05:56.573Z,31.50
2019-02-06T14:08:26.862Z,35.07
2019-02-06T14:11:00.541Z,36.63
2019-02-06T14:13:27.663Z,32.50
2019-02-06T14:16:04.015Z,34.73
2019-02-06T14:18:31.673Z,33.73
2019-02-06T14:21:04.699Z,39.90
2019-02-06T14:23:49.985Z,34.67
2019-02-06T14:26:48.270Z,31.43
2019-02-06T14:29:52.869Z,30.70
2019-02-06T14:32:51.631Z,33.63
2019-02-06T14:36:02.776Z,30.87
2019-02-06T14:39:10.847Z,30.53
2019-02-06T14:42:54.210Z,34.20
2019-02-06T14:45:55.759Z,30.97
2019-02-06T14:48:49.459Z,37.80
2019-02-06T14:51:43.235Z,34.47
2019-02-06T14:54:17.974Z,37.07
2019-02-06T14:57:31.332Z,34.93
2019-02-06T15:00:26.458Z,33.83
2019-02-06T15:03:26.140Z,36.33
2019-02-06T15:06:30.347Z,36.77
2019-02-06T15:09:39.487Z,38.17
2019-02-06T15:12:44.867Z,35.70
2019-02-06T15:15:45.744Z,34.47
2019-02-06T15:18:47.047Z,35.83
2019-02-06T15:21:51.372Z,32.83
2019-02-06T15:24:46.162Z,44.20
2019-02-06T15:27:38.297Z,36.03
2019-02-06T15:30:39.293Z,35.80
2019-02-06T15:33:24.209Z,32.00
2019-02-06T15:36:29.681Z,32.70
2019-02-06T15:39:44.542Z,33.00
2019-02-06T15:42:56.155Z,34.97
2019-02-06T15:45:50.500Z,33.90
2019-02-06T15:48:59.706Z,36.13
2019-02-06T15:52:24.504Z,32.97
2019-02-06T15:55:52.486Z,35.37
2019-02-06T15:59:11.506Z,34.67
2019-02-06T16:02:16.725Z,35.27
2019-02-06T16:05:25.021Z,32.40
2019-02-06T16:08:32.826Z,36.30
2019-02-06T16:11:20.231Z,35.77
2019-02-06T16:14:29.746Z,39.73
2019-02-06T16:17:43.442Z,37.90
2019-02-06T16:21:03.137Z,31.87
2019-02-06T16:23:51.688Z,39.63
2019-02-06T16:27:05.720Z,36.33
2019-02-06T16:30:30.304Z,37.30
2019-02-06T16:34:00.309Z,37.07
2019-02-06T16:37:04.319Z,35.30
2019-02-06T16:40:05.059Z,37.33
2019-02-06T16:43:41.677Z,35.67
2019-02-06T16:47:01.883Z,39.10
2019-02-06T16:49:59.412Z,41.23
2019-02-06T16:52:44.694Z,37.63
2019-02-06T16:55:41.275Z,37.60
2019-02-06T16:58:49.210Z,37.80
2019-02-06T17:02:00.767Z,38.57
2019-02-06T17:05:12.007Z,36.90
2019-02-06T17:08:23.865Z,34.80
2019-02-06T17:11:12.428Z,32.40
2019-02-06T17:14:29.941Z,37.73
2019-02-06T17:17:42.505Z,34.15
2019-02-06T17:20:58.412Z,37.93
2019-02-06T17:24:17.123Z,41.67
2019-02-06T17:27:00.929Z,37.57
2019-02-06T17:30:11.305Z,39.80
2019-02-06T17:33:28.201Z,38.63
2019-02-06T17:36:59.283Z,40.63
2019-02-06T17:40:29.315Z,38.07
2019-02-06T17:43:20.539Z,37.67
2019-02-06T17:46:39.499Z,40.33
2019-02-06T17:49:44.801Z,43.07
2019-02-06T17:52:48.590Z,41.63
2019-02-06T17:55:29.147Z,41.60
2019-02-06T17:58:00.846Z,40.95
2019-02-06T18:00:38.177Z,50.30
2019-02-06T18:03:09.758Z,46.92
2019-02-06T18:05:40.112Z,41.67
2019-02-06T18:08:07.505Z,43.87
2019-02-06T18:10:37.997Z,53.87
2019-02-06T18:13:26.620Z,54.77
2019-02-06T18:15:59.844Z,59.10
2019-02-06T18:18:29.883Z,42.85
2019-02-06T18:20:57.897Z,41.60
2019-02-06T18:23:25.810Z,38.63
2019-02-06T18:26:15.186Z,41.83
2019-02-06T18:28:44.706Z,39.48
2019-02-06T18:31:14.330Z,36.98
2019-02-06T18:33:42.665Z,45.05
2019-02-06T18:36:10.403Z,40.52
2019-02-06T18:38:46.799Z,40.73
2019-02-06T18:41:13.222Z,40.20
2019-02-06T18:43:43.355Z,46.53
2019-02-06T18:46:16.221Z,42.27
2019-02-06T18:49:09.428Z,39.05
2019-02-06T18:51:38.123Z,41.60
2019-02-06T18:54:11.035Z,40.53
2019-02-06T18:56:39.559Z,41.65
2019-02-06T18:59:09.523Z,40.43
2019-02-06T19:01:40.434Z,43.57
2019-02-06T19:04:19.120Z,42.70
2019-02-06T19:06:49.559Z,48.23
2019-02-06T19:09:25.280Z,39.20
2019-02-06T19:11:53.442Z,44.25
2019-02-06T19:14:50.227Z,43.63
2019-02-06T19:17:18.474Z,45.77
2019-02-06T19:20:10.143Z,39.83
2019-02-06T19:22:43.466Z,38.17
2019-02-06T19:25:12.051Z,46.00
2019-02-06T19:27:41.722Z,43.98
2019-02-06T19:30:26.233Z,49.73
2019-02-06T19:35:52.523Z,54.17
2019-02-06T19:38:24.032Z,45.47
2019-02-06T19:40:51.736Z,63.20
2019-02-06T19:43:22.763Z,53.23
2019-02-06T19:45:50.623Z,65.70
2019-02-06T19:48:20.210Z,66.90
2019-02-06T19:50:50.352Z,41.88
2019-02-06T19:53:20.467Z,47.77
2019-02-06T19:55:48.169Z,46.20
2019-02-06T19:58:18.244Z,46.80
2019-02-06T20:00:46.444Z,45.70
2019-02-06T20:03:21.077Z,42.73
2019-02-06T20:05:57.834Z,43.78
2019-02-06T20:08:25.719Z,44.50
2019-02-06T20:10:53.855Z,42.00
2019-02-06T20:13:21.532Z,42.08
2019-02-06T20:15:52.788Z,48.45
2019-02-06T20:18:23.191Z,53.38
2019-02-06T20:21:00.744Z,47.55
2019-02-06T20:23:28.658Z,44.98
2019-02-06T20:26:18.711Z,43.65
2019-02-06T20:28:49.208Z,44.55
2019-02-06T20:31:21.723Z,47.73
2019-02-06T20:33:49.440Z,43.73
2019-02-06T20:36:17.109Z,46.90
2019-02-06T20:38:52.279Z,47.70
2019-02-06T20:41:29.962Z,49.67
2019-02-06T20:43:57.639Z,49.18
2019-02-06T20:46:25.533Z,45.17
2019-02-06T20:48:55.980Z,43.75
2019-02-06T20:51:24.421Z,40.23
2019-02-06T20:53:55.174Z,49.25
2019-02-06T20:56:23.777Z,47.27
2019-02-06T20:58:51.549Z,49.03
2019-02-06T21:01:29.816Z,45.08
2019-02-06T21:04:05.210Z,45.50
2019-02-06T21:06:40.451Z,47.90
2019-02-06T21:09:21.652Z,46.95
2019-02-06T21:11:54.519Z,42.53
2019-02-06T21:14:27.104Z,46.18
2019-02-06T21:16:55.132Z,47.65
2019-02-06T21:19:29.103Z,43.78
2019-02-06T21:21:59.606Z,47.30
2019-02-06T21:24:27.712Z,46.97
2019-02-06T21:26:55.654Z,45.38
2019-02-06T21:29:24.118Z,45.48
2019-02-06T21:31:51.959Z,42.67
2019-02-06T21:34:28.704Z,45.23
2019-02-06T21:36:59.107Z,40.43
2019-02-06T21:39:31.757Z,49.23
2019-02-06T21:42:02.368Z,43.45
2019-02-06T21:44:30.414Z,47.10
2019-02-06T21:47:00.950Z,39.98
2019-02-06T21:49:31.420Z,44.38
2019-02-06T21:51:59.332Z,37.88
2019-02-06T21:54:27.174Z,43.92
2019-02-06T21:56:56.133Z,43.80
2019-02-06T21:59:26.303Z,41.73
2019-02-06T22:01:54.297Z,42.30
2019-02-06T22:04:25.208Z,45.75
2019-02-06T22:06:53.188Z,41.70
2019-02-06T22:09:23.774Z,41.13
2019-02-06T22:11:51.545Z,42.65
2019-02-06T22:14:19.152Z,46.53
2019-02-06T22:16:47.129Z,42.03
2019-02-06T22:19:15.494Z,38.05
2019-02-06T22:21:43.332Z,42.40
2019-02-06T22:24:14.337Z,43.50
2019-02-06T22:26:43.663Z,42.05
2019-02-06T22:29:15.095Z,42.48
2019-02-06T22:31:43.470Z,45.83
2019-02-06T22:34:11.308Z,43.60
2019-02-06T22:36:41.589Z,38.67
2019-02-06T22:39:10.722Z,39.83
2019-02-06T22:41:39.298Z,44.48
2019-02-06T22:44:09.842Z,45.35
2019-02-06T22:46:37.490Z,44.03
2019-02-06T22:49:05.591Z,39.25
2019-02-06T22:51:42.655Z,46.55
2019-02-06T23:02:33.729Z,45.98
2019-02-06T23:16:17.269Z,46.53
2019-02-06T23:18:45.532Z,40.60
2019-02-06T23:21:13.219Z,43.25
2019-02-06T23:23:41.315Z,42.60
2019-02-06T23:26:16.718Z,44.50
2019-02-06T23:28:49.464Z,47.50
2019-02-06T23:31:17.064Z,46.45
2019-02-06T23:33:44.738Z,43.02
2019-02-06T23:36:12.883Z,43.35
2019-02-06T23:38:40.581Z,44.30
2019-02-06T23:41:08.181Z,45.92
2019-02-06T23:43:36.064Z,43.55
2019-02-06T23:46:18.114Z,45.45
2019-02-06T23:48:47.003Z,47.55
2019-02-06T23:51:14.600Z,46.90
2019-02-06T23:53:46.050Z,50.10
2019-02-06T23:56:14.026Z,45.98
2019-02-06T23:58:41.822Z,49.95
